createdAt,value
2019-04-21T00:00:39.711Z,99151.58
2019-04-21T00:01:47.438Z,99155.41
2019-04-21T00:02:50.365Z,99153.73
2019-04-21T00:04:02.505Z,99152.09
2019-04-21T00:05:20.018Z,99145.95
2019-04-21T00:06:25.401Z,99144.92
2019-04-21T00:07:28.111Z,99148.59
2019-04-21T00:09:40.031Z,99147.92
2019-04-21T00:10:46.394Z,99145.59
2019-04-21T00:11:47.225Z,99143.43
2019-04-21T00:12:47.467Z,99141.77
2019-04-21T00:13:46.711Z,99143.77
2019-04-21T00:14:51.250Z,99141.95
2019-04-21T00:15:48.944Z,99140.60
2019-04-21T00:16:55.542Z,99145.45
2019-04-21T00:17:58.866Z,99142.26
2019-04-21T00:19:09.923Z,99145.25
2019-04-21T00:20:19.181Z,99136.63
2019-04-21T00:21:24.446Z,99141.93
2019-04-21T00:22:31.559Z,99145.75
2019-04-21T00:23:47.340Z,99139.45
2019-04-21T00:24:41.228Z,99141.93
2019-04-21T00:25:46.076Z,99140.60
2019-04-21T00:26:57.679Z,99132.13
2019-04-21T00:27:58.951Z,99136.62
2019-04-21T00:29:09.408Z,99133.15
2019-04-21T00:30:12.172Z,99131.80
2019-04-21T00:31:12.401Z,99137.29
2019-04-21T00:32:16.555Z,99131.64
2019-04-21T00:33:10.297Z,99131.47
2019-04-21T00:34:09.075Z,99134.13
2019-04-21T00:35:17.594Z,99127.66
2019-04-21T00:36:24.374Z,99129.30
2019-04-21T00:37:36.553Z,99127.81
2019-04-21T00:39:03.002Z,99131.31
2019-04-21T00:39:55.724Z,99134.28
2019-04-21T00:40:56.510Z,99125.47
2019-04-21T00:41:59.672Z,99129.47
2019-04-21T00:43:04.624Z,99127.97
2019-04-21T00:44:00.735Z,99132.80
2019-04-21T00:45:07.884Z,99131.30
2019-04-21T00:46:06.741Z,99134.61
2019-04-21T00:47:27.847Z,99130.14
2019-04-21T00:48:30.434Z,99132.11
2019-04-21T00:49:26.951Z,99128.81
2019-04-21T00:50:40.743Z,99125.98
2019-04-21T00:51:56.837Z,99129.64
2019-04-21T00:54:12.665Z,99131.31
2019-04-21T00:55:20.372Z,99126.31
2019-04-21T00:56:15.328Z,99126.98
2019-04-21T00:57:31.132Z,99120.34
2019-04-21T00:58:28.349Z,99118.50
2019-04-21T00:59:31.862Z,99118.52
2019-04-21T01:00:36.355Z,99117.00
2019-04-21T01:01:37.942Z,99117.69
2019-04-21T01:03:55.042Z,99118.67
2019-04-21T01:04:49.543Z,99116.67
2019-04-21T01:05:57.636Z,99112.20
2019-04-21T01:07:01.639Z,99119.66
2019-04-21T01:08:04.960Z,99119.02
2019-04-21T01:09:08.421Z,99119.36
2019-04-21T01:10:06.388Z,99115.84
2019-04-21T01:11:17.891Z,99113.70
2019-04-21T01:12:19.317Z,99116.69
2019-04-21T01:13:45.562Z,99113.05
2019-04-21T01:14:34.806Z,99117.20
2019-04-21T01:15:44.247Z,99117.52
2019-04-21T01:16:48.561Z,99108.71
2019-04-21T01:17:46.291Z,99109.40
2019-04-21T01:18:49.428Z,99116.37
2019-04-21T01:19:46.867Z,99114.53
2019-04-21T01:20:36.313Z,99117.19
2019-04-21T01:21:38.554Z,99111.39
2019-04-21T01:22:41.479Z,99108.71
2019-04-21T01:23:44.559Z,99109.71
2019-04-21T01:24:56.990Z,99105.73
2019-04-21T01:26:06.859Z,99109.55
2019-04-21T01:27:06.546Z,99110.22
2019-04-21T01:28:21.375Z,99110.55
2019-04-21T01:29:19.115Z,99111.20
2019-04-21T01:30:30.628Z,99114.54
2019-04-21T01:31:34.894Z,99110.04
2019-04-21T01:32:42.659Z,99108.90
2019-04-21T01:33:44.892Z,99104.38
2019-04-21T01:34:45.319Z,99108.72
2019-04-21T01:35:55.265Z,99106.38
2019-04-21T01:36:54.161Z,99102.56
2019-04-21T01:38:04.713Z,99105.05
2019-04-21T01:39:13.699Z,99112.05
2019-04-21T01:40:16.258Z,99106.38
2019-04-21T01:41:19.819Z,99110.71
2019-04-21T01:42:21.412Z,99104.24
2019-04-21T01:43:23.457Z,99104.06
2019-04-21T01:44:38.795Z,99104.74
2019-04-21T01:45:31.684Z,99107.40
2019-04-21T01:46:33.935Z,99105.73
2019-04-21T01:47:40.895Z,99100.36
2019-04-21T01:48:42.893Z,99101.69
2019-04-21T01:49:43.245Z,99106.37
2019-04-21T01:50:53.864Z,99102.21
2019-04-21T01:52:20.552Z,99100.71
2019-04-21T01:53:24.918Z,99103.38
2019-04-21T01:54:53.463Z,99101.05
2019-04-21T01:55:48.570Z,99099.89
2019-04-21T01:57:03.379Z,99099.73
2019-04-21T01:58:07.003Z,99100.07
2019-04-21T01:59:03.793Z,99100.74
2019-04-21T02:00:13.631Z,99102.90
2019-04-21T02:01:33.650Z,99100.73
2019-04-21T02:02:40.417Z,99099.70
2019-04-21T02:04:48.409Z,99095.39
2019-04-21T02:05:51.998Z,99100.22
2019-04-21T02:06:55.046Z,99094.73
2019-04-21T02:07:55.204Z,99093.89
2019-04-21T02:08:58.076Z,99086.25
2019-04-21T02:10:11.468Z,99092.89
2019-04-21T02:11:15.633Z,99091.56
2019-04-21T02:12:13.454Z,99099.05
2019-04-21T02:13:12.050Z,99097.39
2019-04-21T02:14:22.976Z,99096.05
2019-04-21T02:15:33.021Z,99089.59
2019-04-21T02:16:39.192Z,99090.41
2019-04-21T02:17:35.704Z,99083.09
2019-04-21T02:18:39.568Z,99091.77
2019-04-21T02:19:43.363Z,99095.39
2019-04-21T02:20:43.470Z,99094.73
2019-04-21T02:21:49.183Z,99094.08
2019-04-21T02:23:12.923Z,99092.75
2019-04-21T02:25:15.153Z,99089.44
2019-04-21T02:26:16.462Z,99087.44
2019-04-21T02:27:19.179Z,99088.77
2019-04-21T02:28:29.866Z,99090.09
2019-04-21T02:29:29.135Z,99094.42
2019-04-21T02:30:43.084Z,99095.05
2019-04-21T02:32:06.595Z,99095.23
2019-04-21T02:36:15.429Z,99096.36
2019-04-21T02:37:27.716Z,99096.72
2019-04-21T02:38:11.910Z,99096.68
2019-04-21T02:39:20.993Z,99100.13
2019-04-21T02:40:21.561Z,99096.88
2019-04-21T02:41:24.146Z,99094.17
2019-04-21T02:42:32.950Z,99098.93
2019-04-21T02:43:25.806Z,99091.50
2019-04-21T02:45:43.316Z,99088.67
2019-04-21T02:46:42.328Z,99090.50
2019-04-21T02:51:04.730Z,99080.08
2019-04-21T02:52:13.819Z,99083.40
2019-04-21T02:54:28.787Z,99080.94
2019-04-21T02:54:45.891Z,99089.06
2019-04-21T02:57:39.625Z,99084.08
2019-04-21T02:58:44.421Z,99078.63
2019-04-21T02:59:51.739Z,99075.14
2019-04-21T03:01:06.981Z,99069.64
2019-04-21T03:02:16.225Z,99066.48
2019-04-21T03:03:48.361Z,99065.83
2019-04-21T03:07:03.743Z,99060.19
2019-04-21T03:08:25.911Z,99054.20
2019-04-21T03:09:09.224Z,99055.55
2019-04-21T03:10:12.110Z,99052.05
2019-04-21T03:11:12.337Z,99051.91
2019-04-21T03:13:31.459Z,99051.41
2019-04-21T03:14:40.927Z,99056.37
2019-04-21T03:15:47.401Z,99053.23
2019-04-21T03:16:42.601Z,99054.89
2019-04-21T03:18:50.377Z,99061.69
2019-04-21T03:21:00.200Z,99063.52
2019-04-21T03:22:05.092Z,99060.53
2019-04-21T03:23:11.273Z,99058.36
2019-04-21T03:24:13.375Z,99054.55
2019-04-21T03:25:25.175Z,99052.20
2019-04-21T03:27:30.810Z,99053.06
2019-04-21T03:28:29.819Z,99056.54
2019-04-21T03:29:38.560Z,99052.89
2019-04-21T03:32:05.674Z,99050.35
2019-04-21T03:38:14.840Z,99053.19
2019-04-21T03:39:07.780Z,99055.51
2019-04-21T03:40:15.012Z,99052.69
2019-04-21T03:41:22.345Z,99058.45
2019-04-21T03:43:28.279Z,99055.19
2019-04-21T03:44:37.053Z,99057.52
2019-04-21T03:47:50.070Z,99061.00
2019-04-21T03:48:53.978Z,99053.53
2019-04-21T03:50:05.220Z,99058.03
2019-04-21T03:51:04.363Z,99057.69
2019-04-21T03:52:15.240Z,99063.83
2019-04-21T03:53:10.788Z,99060.65
2019-04-21T03:56:53.559Z,99056.42
2019-04-21T03:58:05.542Z,99055.58
2019-04-21T03:59:01.902Z,99054.77
2019-04-21T03:59:45.583Z,99053.97
2019-04-21T04:03:35.399Z,99048.33
2019-04-21T04:04:37.165Z,99050.47
2019-04-21T04:05:49.520Z,99057.95
2019-04-21T04:07:04.041Z,99047.51
2019-04-21T04:07:59.463Z,99046.89
2019-04-21T04:09:03.910Z,99053.88
2019-04-21T04:10:03.225Z,99051.39
2019-04-21T04:13:14.082Z,99049.25
2019-04-21T04:17:25.674Z,99060.69
2019-04-21T04:19:40.140Z,99063.73
2019-04-21T04:22:06.042Z,99069.16
2019-04-21T04:22:58.462Z,99065.52
2019-04-21T04:26:09.061Z,99068.17
2019-04-21T04:31:30.440Z,99052.20
2019-04-21T04:32:28.766Z,99056.88
2019-04-21T04:34:41.098Z,99051.14
2019-04-21T04:35:58.784Z,99042.96
2019-04-21T04:38:03.347Z,99052.80
2019-04-21T04:39:26.033Z,99054.13
2019-04-21T04:40:21.436Z,99053.36
2019-04-21T04:41:42.290Z,99050.56
2019-04-21T04:42:41.595Z,99054.20
2019-04-21T04:43:37.100Z,99062.98
2019-04-21T04:45:52.849Z,99059.94
2019-04-21T04:47:01.259Z,99060.73
2019-04-21T04:49:05.304Z,99059.73
2019-04-21T04:49:59.473Z,99046.81
2019-04-21T04:52:28.192Z,99052.45
2019-04-21T04:53:26.715Z,99059.58
2019-04-21T04:54:37.146Z,99058.67
2019-04-21T04:55:26.240Z,99056.84
2019-04-21T04:56:33.165Z,99056.37
2019-04-21T04:59:15.458Z,99060.05
2019-04-21T05:00:58.084Z,99058.41
2019-04-21T05:02:55.978Z,99062.70
2019-04-21T05:05:14.067Z,99060.85
2019-04-21T05:07:36.194Z,99052.36
2019-04-21T05:08:45.807Z,99062.52
2019-04-21T05:09:39.637Z,99065.36
2019-04-21T05:10:48.995Z,99061.20
2019-04-21T05:12:43.815Z,99067.81
2019-04-21T05:13:58.062Z,99064.68
2019-04-21T05:16:01.449Z,99058.99
2019-04-21T05:17:11.224Z,99061.69
2019-04-21T05:18:05.554Z,99065.83
2019-04-21T05:19:18.061Z,99067.00
2019-04-21T05:20:17.107Z,99065.02
2019-04-21T05:21:30.142Z,99064.68
2019-04-21T05:22:22.138Z,99064.66
2019-04-21T05:23:24.680Z,99066.49
2019-04-21T05:24:23.075Z,99069.30
2019-04-21T05:25:26.675Z,99069.32
2019-04-21T05:26:28.621Z,99064.61
2019-04-21T05:27:43.791Z,99064.68
2019-04-21T05:28:41.951Z,99068.17
2019-04-21T05:29:58.662Z,99065.19
2019-04-21T05:31:25.619Z,99061.36
2019-04-21T05:32:36.195Z,99068.36
2019-04-21T05:33:44.862Z,99067.71
2019-04-21T05:34:50.807Z,99067.88
2019-04-21T05:35:56.186Z,99068.15
2019-04-21T05:37:07.213Z,99065.02
2019-04-21T05:38:10.224Z,99057.39
2019-04-21T05:39:14.590Z,99060.11
2019-04-21T05:40:22.172Z,99058.61
2019-04-21T05:41:20.624Z,99057.86
2019-04-21T05:42:28.445Z,99060.19
2019-04-21T05:43:39.201Z,99057.86
2019-04-21T05:44:56.781Z,99064.48
2019-04-21T05:45:51.996Z,99059.52
2019-04-21T05:47:07.930Z,99059.86
2019-04-21T05:48:15.416Z,99058.02
2019-04-21T05:49:20.538Z,99050.55
2019-04-21T05:50:19.431Z,99055.87
2019-04-21T05:51:20.398Z,99055.84
2019-04-21T05:52:22.547Z,99053.80
2019-04-21T05:53:37.381Z,99054.63
2019-04-21T05:54:44.110Z,99051.47
2019-04-21T05:55:46.396Z,99048.81
2019-04-21T05:56:45.699Z,99051.45
2019-04-21T05:57:45.817Z,99049.14
2019-04-21T05:58:50.920Z,99055.56
2019-04-21T06:00:09.914Z,99054.39
2019-04-21T06:02:18.449Z,99052.33
2019-04-21T06:03:16.483Z,99044.66
2019-04-21T06:04:29.088Z,99050.88
2019-04-21T06:05:35.005Z,99038.19
2019-04-21T06:07:33.394Z,99056.53
2019-04-21T06:08:37.309Z,99052.84
2019-04-21T06:09:51.334Z,99049.41
2019-04-21T06:11:59.892Z,99044.81
2019-04-21T06:12:59.601Z,99044.02
2019-04-21T06:14:14.176Z,99038.69
2019-04-21T06:15:12.213Z,99041.02
2019-04-21T06:16:07.327Z,99043.13
2019-04-21T06:17:19.783Z,99038.53
2019-04-21T06:18:27.266Z,99048.84
2019-04-21T06:19:30.661Z,99044.53
2019-04-21T06:20:28.781Z,99045.70
2019-04-21T06:21:37.182Z,99046.90
2019-04-21T06:22:36.039Z,99047.41
2019-04-21T06:23:42.270Z,99050.72
2019-04-21T06:25:16.202Z,99044.41
2019-04-21T06:27:59.981Z,99044.44
2019-04-21T06:29:02.779Z,99045.72
2019-04-21T06:30:12.074Z,99044.57
2019-04-21T06:31:22.396Z,99046.38
2019-04-21T06:32:30.411Z,99045.57
2019-04-21T06:33:27.477Z,99048.05
2019-04-21T06:34:43.670Z,99049.38
2019-04-21T06:36:21.458Z,99056.18
2019-04-21T06:37:16.236Z,99049.21
2019-04-21T06:38:04.662Z,99044.39
2019-04-21T06:40:24.481Z,99042.00
2019-04-21T06:41:27.820Z,99048.73
2019-04-21T06:42:18.616Z,99048.58
2019-04-21T06:43:38.605Z,99049.09
2019-04-21T06:44:33.209Z,99045.09
2019-04-21T06:45:41.149Z,99051.91
2019-04-21T06:46:43.839Z,99052.59
2019-04-21T06:47:53.967Z,99045.32
2019-04-21T06:48:57.055Z,99047.95
2019-04-21T06:49:53.743Z,99050.52
2019-04-21T06:51:03.179Z,99050.22
2019-04-21T06:52:19.365Z,99055.19
2019-04-21T06:53:11.898Z,99056.84
2019-04-21T06:55:19.894Z,99061.01
2019-04-21T06:56:24.125Z,99059.23
2019-04-21T06:57:28.958Z,99052.47
2019-04-21T06:58:32.874Z,99061.06
2019-04-21T06:59:34.317Z,99051.99
2019-04-21T07:00:35.791Z,99056.94
2019-04-21T07:02:51.881Z,99053.35
2019-04-21T07:03:58.952Z,99054.34
2019-04-21T07:05:15.292Z,99055.22
2019-04-21T07:06:08.071Z,99051.45
2019-04-21T07:07:06.414Z,99050.12
2019-04-21T07:08:29.025Z,99053.26
2019-04-21T07:09:25.448Z,99046.63
2019-04-21T07:10:26.551Z,99045.68
2019-04-21T07:11:25.328Z,99046.70
2019-04-21T07:12:37.347Z,99047.53
2019-04-21T07:13:41.629Z,99053.38
2019-04-21T07:14:43.744Z,99050.37
2019-04-21T07:15:50.145Z,99050.32
2019-04-21T07:16:57.792Z,99049.02
2019-04-21T07:17:58.029Z,99048.05
2019-04-21T07:19:14.529Z,99046.20
2019-04-21T07:20:15.508Z,99050.32
2019-04-21T07:21:14.121Z,99050.02
2019-04-21T07:22:19.500Z,99052.82
2019-04-21T07:23:26.110Z,99051.69
2019-04-21T07:24:29.225Z,99055.39
2019-04-21T07:25:32.699Z,99050.41
2019-04-21T07:26:37.485Z,99047.66
2019-04-21T07:27:44.971Z,99052.52
2019-04-21T07:28:49.740Z,99054.30
2019-04-21T07:30:59.555Z,99058.59
2019-04-21T07:31:59.273Z,99057.51
2019-04-21T07:34:12.381Z,99055.59
2019-04-21T07:35:08.454Z,99061.60
2019-04-21T07:36:24.995Z,99049.30
2019-04-21T07:37:20.913Z,99051.62
2019-04-21T07:38:22.438Z,99054.28
2019-04-21T07:39:30.058Z,99048.97
2019-04-21T07:40:28.671Z,99054.40
2019-04-21T07:41:31.076Z,99053.64
2019-04-21T07:42:38.047Z,99053.02
2019-04-21T07:43:37.999Z,99053.66
2019-04-21T07:44:39.231Z,99056.02
2019-04-21T07:45:49.751Z,99047.36
2019-04-21T07:46:49.043Z,99056.54
2019-04-21T07:48:08.236Z,99054.06
2019-04-21T07:49:12.490Z,99057.05
2019-04-21T07:50:28.653Z,99055.72
2019-04-21T07:51:49.038Z,99053.38
2019-04-21T07:52:55.382Z,99053.72
2019-04-21T07:55:12.631Z,99050.67
2019-04-21T07:55:46.964Z,99051.87
2019-04-21T07:57:05.125Z,99039.73
2019-04-21T07:58:13.259Z,99051.05
2019-04-21T07:59:23.966Z,99050.19
2019-04-21T08:00:29.593Z,99056.70
2019-04-21T08:02:30.748Z,99049.30
2019-04-21T08:03:33.601Z,99037.64
2019-04-21T08:05:47.123Z,99042.30
2019-04-21T08:06:46.579Z,99051.28
2019-04-21T08:07:59.615Z,99039.80
2019-04-21T08:08:57.860Z,99048.45
2019-04-21T08:09:57.252Z,99045.73
2019-04-21T08:11:02.301Z,99040.39
2019-04-21T08:12:12.719Z,99046.41
2019-04-21T08:13:18.763Z,99034.06
2019-04-21T08:14:25.381Z,99034.70
2019-04-21T08:15:41.674Z,99045.86
2019-04-21T08:16:31.839Z,99036.22
2019-04-21T08:17:30.690Z,99040.72
2019-04-21T08:18:39.472Z,99045.08
2019-04-21T08:19:39.299Z,99033.45
2019-04-21T08:20:45.924Z,99036.43
2019-04-21T08:23:02.562Z,99027.98
2019-04-21T08:24:00.218Z,99043.73
2019-04-21T08:25:03.381Z,99039.80
2019-04-21T08:26:07.718Z,99041.16
2019-04-21T08:27:18.858Z,99037.00
2019-04-21T08:28:21.353Z,99041.47
2019-04-21T08:29:42.102Z,99036.14
2019-04-21T08:30:30.563Z,99037.31
2019-04-21T08:31:38.884Z,99041.42
2019-04-21T08:32:46.617Z,99044.92
2019-04-21T08:33:46.543Z,99045.44
2019-04-21T08:34:54.813Z,99038.67
2019-04-21T08:36:52.781Z,99034.19
2019-04-21T08:37:54.748Z,99034.70
2019-04-21T08:39:07.323Z,99032.40
2019-04-21T08:40:09.916Z,99038.19
2019-04-21T08:41:12.486Z,99039.27
2019-04-21T08:42:18.137Z,99038.92
2019-04-21T08:43:27.966Z,99032.40
2019-04-21T08:44:35.181Z,99019.91
2019-04-21T08:45:36.167Z,99029.58
2019-04-21T08:46:39.099Z,99032.80
2019-04-21T08:47:39.651Z,99032.95
2019-04-21T08:48:52.702Z,99030.97
2019-04-21T08:49:47.528Z,99024.83
2019-04-21T08:51:06.784Z,99028.64
2019-04-21T08:52:21.763Z,99027.98
2019-04-21T08:53:03.093Z,99028.33
2019-04-21T08:54:09.327Z,99025.16
2019-04-21T08:55:12.181Z,99028.33
2019-04-21T08:56:27.689Z,99023.02
2019-04-21T08:58:02.399Z,99024.50
2019-04-21T08:59:03.882Z,99025.67
2019-04-21T09:00:16.761Z,99027.34
2019-04-21T09:01:23.895Z,99027.98
2019-04-21T09:02:40.339Z,99029.48
2019-04-21T09:03:55.034Z,99036.64
2019-04-21T09:05:00.174Z,99034.79
2019-04-21T09:06:09.226Z,99035.15
2019-04-21T09:07:18.245Z,99043.11
2019-04-21T09:08:10.734Z,99035.31
2019-04-21T09:09:16.763Z,99034.31
2019-04-21T09:10:17.310Z,99032.98
2019-04-21T09:11:16.341Z,99032.31
2019-04-21T09:12:29.482Z,99036.30
2019-04-21T09:13:29.776Z,99033.30
2019-04-21T09:14:36.887Z,99027.16
2019-04-21T09:15:36.678Z,99012.55
2019-04-21T09:16:42.039Z,99025.32
2019-04-21T09:17:43.787Z,99030.66
2019-04-21T09:18:45.570Z,99021.33
2019-04-21T09:19:59.395Z,99033.48
2019-04-21T09:21:10.012Z,99029.81
2019-04-21T09:22:08.078Z,99029.48
2019-04-21T09:23:06.708Z,99028.66
2019-04-21T09:24:16.198Z,99023.66
2019-04-21T09:25:29.148Z,99009.73
2019-04-21T09:26:26.274Z,99013.05
2019-04-21T09:27:27.013Z,99011.05
2019-04-21T09:28:25.687Z,99011.21
2019-04-21T09:29:30.962Z,99011.72
2019-04-21T09:30:24.146Z,99008.05
2019-04-21T09:31:31.870Z,99007.72
2019-04-21T09:32:34.539Z,98998.27
2019-04-21T09:33:41.288Z,98986.28
2019-04-21T09:34:44.209Z,98994.59
2019-04-21T09:35:49.149Z,99002.09
2019-04-21T09:36:58.722Z,99000.91
2019-04-21T09:38:01.159Z,99010.02
2019-04-21T09:39:08.731Z,99003.23
2019-04-21T09:40:06.760Z,99000.73
2019-04-21T09:41:14.267Z,98999.20
2019-04-21T09:42:18.447Z,98999.73
2019-04-21T09:43:30.779Z,99002.71
2019-04-21T09:44:30.632Z,98994.86
2019-04-21T09:45:28.704Z,99000.70
2019-04-21T09:46:35.441Z,98994.20
2019-04-21T09:47:42.247Z,98989.70
2019-04-21T09:48:49.779Z,98984.05
2019-04-21T09:49:45.257Z,98986.34
2019-04-21T09:50:48.015Z,98987.03
2019-04-21T09:51:50.623Z,98986.49
2019-04-21T09:52:58.642Z,98986.72
2019-04-21T09:54:05.821Z,98978.57
2019-04-21T09:55:08.312Z,98976.55
2019-04-21T09:56:14.008Z,98970.59
2019-04-21T09:57:22.844Z,98969.74
2019-04-21T09:58:23.986Z,98970.06
2019-04-21T09:59:26.198Z,98973.09
2019-04-21T10:00:27.225Z,98970.10
2019-04-21T11:03:53.023Z,98917.34
2019-04-21T11:04:56.697Z,98921.02
2019-04-21T11:06:03.380Z,98918.25
2019-04-21T11:07:13.424Z,98920.31
2019-04-21T11:08:23.031Z,98917.63
2019-04-21T11:09:17.899Z,98906.98
2019-04-21T11:10:20.369Z,98916.25
2019-04-21T11:11:23.874Z,98912.27
2019-04-21T11:12:26.180Z,98912.55
2019-04-21T11:13:30.765Z,98911.06
2019-04-21T11:14:33.473Z,98903.20
2019-04-21T11:15:37.015Z,98917.16
2019-04-21T11:16:41.547Z,98921.17
2019-04-21T11:17:45.528Z,98924.95
2019-04-21T11:18:48.476Z,98935.30
2019-04-21T11:19:52.888Z,98921.65
2019-04-21T11:20:55.808Z,98927.02
2019-04-21T11:21:59.145Z,98917.72
2019-04-21T11:23:03.958Z,98930.34
2019-04-21T11:24:06.195Z,98947.05
2019-04-21T11:25:09.185Z,98933.25
2019-04-21T11:26:13.938Z,98926.36
2019-04-21T11:27:17.006Z,98917.49
2019-04-21T11:28:20.690Z,98918.10
2019-04-21T11:29:23.396Z,98914.05
2019-04-21T11:30:25.823Z,98914.77
2019-04-21T11:31:29.264Z,98930.08
2019-04-21T11:32:32.816Z,98917.42
2019-04-21T11:33:35.593Z,98916.78
2019-04-21T11:34:39.001Z,98918.62
2019-04-21T11:35:41.746Z,98921.38
2019-04-21T11:36:48.071Z,98917.11
2019-04-21T11:37:50.792Z,98921.55
2019-04-21T11:39:16.351Z,98908.01
2019-04-21T11:40:10.716Z,98912.38
2019-04-21T11:41:12.006Z,98915.45
2019-04-21T11:42:17.568Z,98913.91
2019-04-21T11:43:21.980Z,98906.31
2019-04-21T11:44:24.910Z,98904.80
2019-04-21T11:45:34.702Z,98911.28
2019-04-21T11:46:36.738Z,98908.33
2019-04-21T11:47:42.588Z,98910.77
2019-04-21T11:48:46.160Z,98905.45
2019-04-21T11:49:49.315Z,98922.56
2019-04-21T11:50:55.060Z,98914.00
2019-04-21T11:51:58.628Z,98916.23
2019-04-21T11:53:03.080Z,98926.27
2019-04-21T11:54:06.850Z,98916.81
2019-04-21T11:55:09.016Z,98911.80
2019-04-21T11:56:12.567Z,98909.21
2019-04-21T11:57:23.971Z,98904.52
2019-04-21T11:58:22.079Z,98903.52
2019-04-21T11:59:25.741Z,98909.05
2019-04-21T12:00:29.479Z,98901.28
2019-04-21T12:01:33.708Z,98902.27
2019-04-21T12:02:37.415Z,98905.23
2019-04-21T12:03:39.922Z,98904.56
2019-04-21T12:04:43.343Z,98900.75
2019-04-21T12:05:47.637Z,98903.41
2019-04-21T12:06:52.193Z,98895.73
2019-04-21T12:07:58.544Z,98900.02
2019-04-21T12:09:02.873Z,98893.38
2019-04-21T12:10:06.386Z,98892.30
2019-04-21T12:11:09.486Z,98898.03
2019-04-21T12:12:11.916Z,98905.80
2019-04-21T12:13:14.180Z,98891.81
2019-04-21T12:14:16.537Z,98901.69
2019-04-21T12:15:19.335Z,98899.34
2019-04-21T12:16:23.258Z,98896.89
2019-04-21T12:17:25.925Z,98892.59
2019-04-21T12:18:29.730Z,98893.89
2019-04-21T12:19:32.565Z,98907.88
2019-04-21T12:20:35.598Z,98885.17
2019-04-21T12:21:49.202Z,98889.47
2019-04-21T12:22:43.311Z,98893.52
2019-04-21T12:23:45.781Z,98876.72
2019-04-21T12:24:49.029Z,98881.33
2019-04-21T12:25:51.752Z,98878.70
2019-04-21T12:26:54.252Z,98899.73
2019-04-21T12:27:56.362Z,98888.17
2019-04-21T12:28:59.684Z,98897.31
2019-04-21T12:30:05.999Z,98878.73
2019-04-21T12:31:11.557Z,98879.46
2019-04-21T12:32:24.143Z,98879.24
2019-04-21T12:33:34.258Z,98876.92
2019-04-21T12:34:36.470Z,98882.64
2019-04-21T12:35:40.186Z,98877.92
2019-04-21T12:36:44.648Z,98876.27
2019-04-21T12:37:47.238Z,98877.61
2019-04-21T12:38:55.810Z,98878.44
2019-04-21T12:39:54.739Z,98877.36
2019-04-21T12:40:57.411Z,98874.80
2019-04-21T12:42:00.593Z,98862.70
2019-04-21T12:43:02.982Z,98861.27
2019-04-21T12:44:06.712Z,98875.28
2019-04-21T12:45:10.075Z,98861.63
2019-04-21T12:46:13.864Z,98869.50
2019-04-21T12:47:16.475Z,98868.23
2019-04-21T12:48:20.139Z,98869.36
2019-04-21T12:49:22.157Z,98865.97
2019-04-21T12:50:25.929Z,98863.92
2019-04-21T12:51:30.070Z,98855.57
2019-04-21T12:52:35.626Z,98854.36
2019-04-21T12:53:39.407Z,98855.98
2019-04-21T12:54:43.908Z,98860.03
2019-04-21T12:55:47.980Z,98856.85
2019-04-21T12:56:52.010Z,98855.70
2019-04-21T12:57:55.130Z,98860.59
2019-04-21T12:58:59.436Z,98862.30
2019-04-21T13:00:06.760Z,98863.02
2019-04-21T13:01:12.616Z,98845.47
2019-04-21T13:02:15.944Z,98840.55
2019-04-21T13:03:20.519Z,98850.37
2019-04-21T13:04:21.979Z,98851.45
2019-04-21T13:05:25.444Z,98848.52
2019-04-21T13:06:28.082Z,98843.84
2019-04-21T13:07:31.127Z,98849.40
2019-04-21T13:08:46.237Z,98843.59
2019-04-21T13:09:40.146Z,98838.80
2019-04-21T13:10:44.335Z,98831.41
2019-04-21T13:11:47.012Z,98831.70
2019-04-21T13:12:52.174Z,98843.52
2019-04-21T13:13:55.734Z,98846.64
2019-04-21T13:14:59.565Z,98853.40
2019-04-21T13:16:03.251Z,98838.08
2019-04-21T13:17:05.864Z,98834.46
2019-04-21T13:18:08.198Z,98831.53
2019-04-21T13:19:15.374Z,98843.44
2019-04-21T13:20:19.211Z,98835.73
2019-04-21T13:21:22.424Z,98834.32
2019-04-21T13:22:24.400Z,98831.70
2019-04-21T13:23:29.143Z,98819.27
2019-04-21T13:24:33.695Z,98824.24
2019-04-21T13:25:36.285Z,98817.66
2019-04-21T13:26:47.254Z,98822.91
2019-04-21T13:27:45.147Z,98822.91
2019-04-21T13:28:52.240Z,98816.96
2019-04-21T13:29:55.025Z,98815.27
2019-04-21T13:30:58.250Z,98814.54
2019-04-21T13:32:03.631Z,98824.91
2019-04-21T13:33:05.132Z,98815.16
2019-04-21T13:34:08.263Z,98808.91
2019-04-21T13:35:14.955Z,98820.13
2019-04-21T13:36:19.524Z,98807.33
2019-04-21T13:37:23.899Z,98808.72
2019-04-21T13:38:35.386Z,98803.42
2019-04-21T13:39:55.482Z,98806.03
2019-04-21T13:40:56.955Z,98800.41
2019-04-21T13:41:57.115Z,98803.09
2019-04-21T13:42:55.297Z,98803.45
2019-04-21T13:44:13.542Z,98804.05
2019-04-21T13:45:18.364Z,98799.57
2019-04-21T13:46:21.001Z,98795.19
2019-04-21T13:47:24.806Z,98790.06
2019-04-21T13:48:26.716Z,98791.58
2019-04-21T13:49:29.569Z,98791.47
2019-04-21T13:50:33.171Z,98803.09
2019-04-21T13:51:36.064Z,98793.68
2019-04-21T13:52:38.650Z,98797.80
2019-04-21T13:53:43.955Z,98796.80
2019-04-21T13:54:47.441Z,98805.36
2019-04-21T13:55:50.835Z,98788.44
2019-04-21T13:56:54.386Z,98802.80
2019-04-21T13:57:56.888Z,98804.27
2019-04-21T13:59:00.109Z,98809.16
2019-04-21T14:00:05.894Z,98798.66
2019-04-21T14:01:09.640Z,98808.23
2019-04-21T14:02:12.908Z,98801.52
2019-04-21T14:03:16.774Z,98787.84
2019-04-21T14:04:19.888Z,98798.09
2019-04-21T14:05:22.446Z,98794.42
2019-04-21T14:06:26.539Z,98789.13
2019-04-21T14:07:30.260Z,98789.24
2019-04-21T14:08:33.525Z,98785.00
2019-04-21T14:09:43.766Z,98780.30
2019-04-21T14:10:39.863Z,98779.73
2019-04-21T14:11:43.294Z,98774.13
2019-04-21T14:12:46.694Z,98769.72
2019-04-21T14:13:50.437Z,98770.70
2019-04-21T14:14:54.393Z,98773.51
2019-04-21T14:15:58.042Z,98767.73
2019-04-21T14:17:00.558Z,98769.05
2019-04-21T14:18:04.675Z,98767.89
2019-04-21T14:19:07.614Z,98775.69
2019-04-21T14:20:10.932Z,98761.43
2019-04-21T14:21:15.423Z,98758.11
2019-04-21T14:22:20.099Z,98758.77
2019-04-21T14:23:31.989Z,98772.11
2019-04-21T14:24:27.205Z,98773.60
2019-04-21T14:25:29.961Z,98761.64
2019-04-21T14:26:32.289Z,98769.16
2019-04-21T14:27:36.307Z,98766.66
2019-04-21T14:28:38.975Z,98764.91
2019-04-21T14:29:41.788Z,98766.57
2019-04-21T14:30:44.403Z,98772.53
2019-04-21T14:31:48.203Z,98768.45
2019-04-21T14:32:51.981Z,98768.30
2019-04-21T14:33:54.520Z,98765.08
2019-04-21T14:34:57.130Z,98760.18
2019-04-21T14:36:00.885Z,98761.52
2019-04-21T14:37:04.522Z,98760.63
2019-04-21T14:38:08.940Z,98752.56
2019-04-21T14:39:12.542Z,98752.94
2019-04-21T14:40:20.687Z,98755.86
2019-04-21T14:41:20.167Z,98748.97
2019-04-21T14:42:22.278Z,98742.67
2019-04-21T14:43:24.048Z,98746.63
2019-04-21T14:44:27.187Z,98749.41
2019-04-21T14:45:32.714Z,98742.72
2019-04-21T14:46:44.971Z,98744.56
2019-04-21T14:47:54.695Z,98746.66
2019-04-21T14:48:59.257Z,98740.88
2019-04-21T14:50:09.296Z,98743.40
2019-04-21T14:51:31.583Z,98732.67
2019-04-21T14:52:35.039Z,98739.22
2019-04-21T14:53:56.186Z,98733.55
2019-04-21T14:55:00.927Z,98728.73
2019-04-21T14:56:03.738Z,98738.98
2019-04-21T14:57:07.249Z,98733.67
2019-04-21T14:58:09.756Z,98735.35
2019-04-21T14:59:12.937Z,98733.76
2019-04-21T15:00:19.003Z,98728.84
2019-04-21T15:01:21.973Z,98731.90
2019-04-21T15:02:25.834Z,98736.31
2019-04-21T15:03:29.808Z,98732.40